sensor_id;sensor_type;location;lat;lon;timestamp;temperature;humidity
37222;DHT22;23119;51.842;-2.230;2023-05-10T00:01:47;12.20;99.90
37222;DHT22;23119;51.842;-2.230;2023-05-10T00:04:15;12.20;99.90
37222;DHT22;23119;51.842;-2.230;2023-05-10T00:06:41;12.10;99.90
37222;DHT22;23119;51.842;-2.230;2023-05-10T00:09:14;12.10;99.90
37222;DHT22;23119;51.842;-2.230;2023-05-10T00:11:42;12.10;99.90
37222;DHT22;23119;51.842;-2.230;2023-05-10T00:14:08;12.10;99.90
37222;DHT22;23119;51.842;-2.230;2023-05-10T00:16:38;12.10;99.90
37222;DHT22;23119;51.842;-2.230;2023-05-10T00:19:06;12.10;99.90
37222;DHT22;23119;51.842;-2.230;2023-05-10T00:21:32;12.10;99.90
37222;DHT22;23119;51.842;-2.230;2023-05-10T00:24:01;12.10;99.90
37222;DHT22;23119;51.842;-2.230;2023-05-10T00:26:29;12.10;99.90
37222;DHT22;23119;51.842;-2.230;2023-05-10T00:28:57;12.00;99.90
37222;DHT22;23119;51.842;-2.230;2023-05-10T00:31:23;12.10;99.90
37222;DHT22;23119;51.842;-2.230;2023-05-10T00:33:49;12.00;99.90
37222;DHT22;23119;51.842;-2.230;2023-05-10T00:36:15;11.90;99.90
37222;DHT22;23119;51.842;-2.230;2023-05-10T00:38:41;11.90;99.90
37222;DHT22;23119;51.842;-2.230;2023-05-10T00:41:18;11.80;99.90
37222;DHT22;23119;51.842;-2.230;2023-05-10T00:43:46;11.80;99.90
37222;DHT22;23119;51.842;-2.230;2023-05-10T00:46:12;11.70;99.90
37222;DHT22;23119;51.842;-2.230;2023-05-10T00:48:38;11.60;99.90
37222;DHT22;23119;51.842;-2.230;2023-05-10T00:51:04;11.50;99.90
37222;DHT22;23119;51.842;-2.230;2023-05-10T00:53:31;11.40;99.90
37222;DHT22;23119;51.842;-2.230;2023-05-10T00:55:59;11.40;99.90
37222;DHT22;23119;51.842;-2.230;2023-05-10T00:58:25;11.30;99.90
37222;DHT22;23119;51.842;-2.230;2023-05-10T01:00:55;11.30;99.90
37222;DHT22;23119;51.842;-2.230;2023-05-10T01:03:21;11.20;99.90
37222;DHT22;23119;51.842;-2.230;2023-05-10T01:05:47;11.20;99.90
37222;DHT22;23119;51.842;-2.230;2023-05-10T01:08:29;11.10;99.90
37222;DHT22;23119;51.842;-2.230;2023-05-10T01:10:55;11.10;99.90
37222;DHT22;23119;51.842;-2.230;2023-05-10T01:13:36;11.10;99.90
37222;DHT22;23119;51.842;-2.230;2023-05-10T01:16:03;11.10;99.90
37222;DHT22;23119;51.842;-2.230;2023-05-10T01:18:38;11.00;99.90
37222;DHT22;23119;51.842;-2.230;2023-05-10T01:34:39;11.00;99.90
37222;DHT22;23119;51.842;-2.230;2023-05-10T01:37:11;11.00;99.90
37222;DHT22;23119;51.842;-2.230;2023-05-10T01:39:45;11.00;99.90
37222;DHT22;23119;51.842;-2.230;2023-05-10T01:42:16;11.00;99.90
37222;DHT22;23119;51.842;-2.230;2023-05-10T01:44:46;11.00;99.90
37222;DHT22;23119;51.842;-2.230;2023-05-10T01:47:25;10.90;99.90
37222;DHT22;23119;51.842;-2.230;2023-05-10T01:50:06;10.90;99.90
37222;DHT22;23119;51.842;-2.230;2023-05-10T01:52:39;10.90;99.90
37222;DHT22;23119;51.842;-2.230;2023-05-10T01:55:09;10.90;99.90
37222;DHT22;23119;51.842;-2.230;2023-05-10T01:57:38;10.90;99.90
37222;DHT22;23119;51.842;-2.230;2023-05-10T02:00:08;10.90;99.90
37222;DHT22;23119;51.842;-2.230;2023-05-10T02:02:39;10.90;99.90
37222;DHT22;23119;51.842;-2.230;2023-05-10T02:05:11;10.90;99.90
37222;DHT22;23119;51.842;-2.230;2023-05-10T02:07:37;10.90;99.90
37222;DHT22;23119;51.842;-2.230;2023-05-10T02:10:05;10.90;99.90
37222;DHT22;23119;51.842;-2.230;2023-05-10T02:12:35;10.80;99.90
37222;DHT22;23119;51.842;-2.230;2023-05-10T02:15:05;10.80;99.90
37222;DHT22;23119;51.842;-2.230;2023-05-10T02:17:37;10.80;99.90
37222;DHT22;23119;51.842;-2.230;2023-05-10T02:20:06;10.80;99.90
37222;DHT22;23119;51.842;-2.230;2023-05-10T02:22:36;10.80;99.90
37222;DHT22;23119;51.842;-2.230;2023-05-10T02:25:04;10.80;99.90
37222;DHT22;23119;51.842;-2.230;2023-05-10T02:27:32;10.80;99.90
37222;DHT22;23119;51.842;-2.230;2023-05-10T02:30:05;10.80;99.90
37222;DHT22;23119;51.842;-2.230;2023-05-10T02:32:34;10.80;99.90
37222;DHT22;23119;51.842;-2.230;2023-05-10T02:35:01;10.80;99.90
37222;DHT22;23119;51.842;-2.230;2023-05-10T02:37:30;10.70;99.90
37222;DHT22;23119;51.842;-2.230;2023-05-10T02:40:01;10.70;99.90
37222;DHT22;23119;51.842;-2.230;2023-05-10T02:42:29;10.70;99.90
37222;DHT22;23119;51.842;-2.230;2023-05-10T02:45:05;10.70;99.90
37222;DHT22;23119;51.842;-2.230;2023-05-10T02:47:32;10.70;99.90
37222;DHT22;23119;51.842;-2.230;2023-05-10T02:49:59;10.70;99.90
37222;DHT22;23119;51.842;-2.230;2023-05-10T02:52:30;10.70;99.90
37222;DHT22;23119;51.842;-2.230;2023-05-10T02:55:01;10.70;99.90
37222;DHT22;23119;51.842;-2.230;2023-05-10T02:57:36;10.70;99.90
37222;DHT22;23119;51.842;-2.230;2023-05-10T03:00:04;10.70;99.90
37222;DHT22;23119;51.842;-2.230;2023-05-10T03:02:30;10.70;99.90
37222;DHT22;23119;51.842;-2.230;2023-05-10T03:04:56;10.70;99.90
37222;DHT22;23119;51.842;-2.230;2023-05-10T03:07:22;10.70;99.90
37222;DHT22;23119;51.842;-2.230;2023-05-10T03:09:49;10.70;99.90
37222;DHT22;23119;51.842;-2.230;2023-05-10T03:12:46;10.70;99.90
37222;DHT22;23119;51.842;-2.230;2023-05-10T03:15:47;10.70;99.90
37222;DHT22;23119;51.842;-2.230;2023-05-10T03:20:47;10.70;99.90
37222;DHT22;23119;51.842;-2.230;2023-05-10T03:23:34;10.70;99.90
37222;DHT22;23119;51.842;-2.230;2023-05-10T03:26:02;10.80;99.90
37222;DHT22;23119;51.842;-2.230;2023-05-10T03:28:30;10.80;99.90
37222;DHT22;23119;51.842;-2.230;2023-05-10T03:30:58;10.80;99.90
37222;DHT22;23119;51.842;-2.230;2023-05-10T03:33:24;10.70;99.90
37222;DHT22;23119;51.842;-2.230;2023-05-10T03:35:50;10.80;99.90
37222;DHT22;23119;51.842;-2.230;2023-05-10T03:38:15;10.80;99.90
37222;DHT22;23119;51.842;-2.230;2023-05-10T03:40:41;10.80;99.90
37222;DHT22;23119;51.842;-2.230;2023-05-10T03:43:07;10.80;99.90
37222;DHT22;23119;51.842;-2.230;2023-05-10T03:45:33;10.80;99.90
37222;DHT22;23119;51.842;-2.230;2023-05-10T03:48:01;10.80;99.90
37222;DHT22;23119;51.842;-2.230;2023-05-10T03:50:26;10.80;99.90
37222;DHT22;23119;51.842;-2.230;2023-05-10T03:52:52;10.90;99.90
37222;DHT22;23119;51.842;-2.230;2023-05-10T03:55:18;10.90;99.90
37222;DHT22;23119;51.842;-2.230;2023-05-10T03:57:44;10.90;99.90
37222;DHT22;23119;51.842;-2.230;2023-05-10T04:00:11;11.00;99.90
37222;DHT22;23119;51.842;-2.230;2023-05-10T04:02:37;10.90;99.90
37222;DHT22;23119;51.842;-2.230;2023-05-10T04:05:02;10.90;99.90
37222;DHT22;23119;51.842;-2.230;2023-05-10T04:07:28;11.00;99.90
37222;DHT22;23119;51.842;-2.230;2023-05-10T04:09:54;10.90;99.90
37222;DHT22;23119;51.842;-2.230;2023-05-10T04:12:20;11.00;99.90
37222;DHT22;23119;51.842;-2.230;2023-05-10T04:14:46;11.00;99.90
37222;DHT22;23119;51.842;-2.230;2023-05-10T04:17:14;11.00;99.90
37222;DHT22;23119;51.842;-2.230;2023-05-10T04:19:39;11.00;99.90
37222;DHT22;23119;51.842;-2.230;2023-05-10T04:22:05;11.00;99.90
37222;DHT22;23119;51.842;-2.230;2023-05-10T04:24:33;10.90;99.90
37222;DHT22;23119;51.842;-2.230;2023-05-10T04:27:04;10.90;99.90
37222;DHT22;23119;51.842;-2.230;2023-05-10T04:29:30;11.00;99.90
37222;DHT22;23119;51.842;-2.230;2023-05-10T04:31:56;10.90;99.90
37222;DHT22;23119;51.842;-2.230;2023-05-10T04:34:22;10.90;99.90
37222;DHT22;23119;51.842;-2.230;2023-05-10T04:36:50;10.90;99.90
37222;DHT22;23119;51.842;-2.230;2023-05-10T04:39:16;10.90;99.90
37222;DHT22;23119;51.842;-2.230;2023-05-10T04:41:42;11.00;99.90
37222;DHT22;23119;51.842;-2.230;2023-05-10T04:44:07;11.00;99.90
37222;DHT22;23119;51.842;-2.230;2023-05-10T04:46:33;11.10;99.90
37222;DHT22;23119;51.842;-2.230;2023-05-10T04:48:59;11.10;99.90
37222;DHT22;23119;51.842;-2.230;2023-05-10T04:51:25;11.30;99.90
37222;DHT22;23119;51.842;-2.230;2023-05-10T04:53:52;11.40;99.90
37222;DHT22;23119;51.842;-2.230;2023-05-10T04:56:21;11.40;99.90
37222;DHT22;23119;51.842;-2.230;2023-05-10T04:58:47;11.40;99.90
37222;DHT22;23119;51.842;-2.230;2023-05-10T05:01:21;11.50;99.90
37222;DHT22;23119;51.842;-2.230;2023-05-10T05:03:46;12.10;99.90
37222;DHT22;23119;51.842;-2.230;2023-05-10T05:06:14;12.70;99.90
37222;DHT22;23119;51.842;-2.230;2023-05-10T05:08:40;13.70;99.90
37222;DHT22;23119;51.842;-2.230;2023-05-10T05:11:06;14.90;99.90
37222;DHT22;23119;51.842;-2.230;2023-05-10T05:13:32;16.10;99.90
37222;DHT22;23119;51.842;-2.230;2023-05-10T05:16:00;17.20;99.90
37222;DHT22;23119;51.842;-2.230;2023-05-10T05:18:26;18.30;99.90
37222;DHT22;23119;51.842;-2.230;2023-05-10T05:20:52;19.00;99.90
37222;DHT22;23119;51.842;-2.230;2023-05-10T05:23:20;19.70;99.90
37222;DHT22;23119;51.842;-2.230;2023-05-10T05:25:52;20.50;99.90
37222;DHT22;23119;51.842;-2.230;2023-05-10T05:28:20;21.90;99.90
37222;DHT22;23119;51.842;-2.230;2023-05-10T05:30:46;22.10;99.90
37222;DHT22;23119;51.842;-2.230;2023-05-10T05:33:18;23.10;99.90
37222;DHT22;23119;51.842;-2.230;2023-05-10T05:35:44;23.90;99.90
37222;DHT22;23119;51.842;-2.230;2023-05-10T05:38:14;24.60;99.90
37222;DHT22;23119;51.842;-2.230;2023-05-10T05:40:40;25.20;98.30
37222;DHT22;23119;51.842;-2.230;2023-05-10T05:43:06;26.00;97.30
37222;DHT22;23119;51.842;-2.230;2023-05-10T05:45:32;26.50;96.10
37222;DHT22;23119;51.842;-2.230;2023-05-10T05:47:58;27.00;95.00
37222;DHT22;23119;51.842;-2.230;2023-05-10T05:50:23;27.80;94.60
37222;DHT22;23119;51.842;-2.230;2023-05-10T05:52:49;28.50;93.90
37222;DHT22;23119;51.842;-2.230;2023-05-10T05:55:15;28.90;92.80
37222;DHT22;23119;51.842;-2.230;2023-05-10T05:57:41;29.50;92.00
37222;DHT22;23119;51.842;-2.230;2023-05-10T06:00:07;30.30;91.40
37222;DHT22;23119;51.842;-2.230;2023-05-10T06:02:33;30.80;90.80
37222;DHT22;23119;51.842;-2.230;2023-05-10T06:04:58;31.30;89.70
37222;DHT22;23119;51.842;-2.230;2023-05-10T06:07:24;31.60;87.40
37222;DHT22;23119;51.842;-2.230;2023-05-10T06:09:50;32.00;86.30
37222;DHT22;23119;51.842;-2.230;2023-05-10T06:12:16;32.30;82.40
37222;DHT22;23119;51.842;-2.230;2023-05-10T06:14:42;32.90;82.90
37222;DHT22;23119;51.842;-2.230;2023-05-10T06:17:07;33.40;83.00
37222;DHT22;23119;51.842;-2.230;2023-05-10T06:19:33;33.90;82.10
37222;DHT22;23119;51.842;-2.230;2023-05-10T06:21:59;34.30;81.20
37222;DHT22;23119;51.842;-2.230;2023-05-10T06:24:27;34.70;80.00
37222;DHT22;23119;51.842;-2.230;2023-05-10T06:26:53;35.00;78.50
37222;DHT22;23119;51.842;-2.230;2023-05-10T06:29:19;35.40;75.70
37222;DHT22;23119;51.842;-2.230;2023-05-10T06:31:47;35.60;76.00
37222;DHT22;23119;51.842;-2.230;2023-05-10T06:34:13;36.00;75.90
37222;DHT22;23119;51.842;-2.230;2023-05-10T06:36:39;36.50;75.10
37222;DHT22;23119;51.842;-2.230;2023-05-10T06:39:05;36.10;74.50
37222;DHT22;23119;51.842;-2.230;2023-05-10T06:41:31;35.20;73.90
37222;DHT22;23119;51.842;-2.230;2023-05-10T06:43:56;35.70;74.20
37222;DHT22;23119;51.842;-2.230;2023-05-10T06:46:22;35.90;73.50
37222;DHT22;23119;51.842;-2.230;2023-05-10T06:48:48;36.70;72.80
37222;DHT22;23119;51.842;-2.230;2023-05-10T06:51:18;37.30;72.30
37222;DHT22;23119;51.842;-2.230;2023-05-10T06:53:46;38.00;69.90
37222;DHT22;23119;51.842;-2.230;2023-05-10T06:56:12;38.50;70.30
37222;DHT22;23119;51.842;-2.230;2023-05-10T06:58:38;38.70;69.50
37222;DHT22;23119;51.842;-2.230;2023-05-10T07:01:07;39.00;69.20
37222;DHT22;23119;51.842;-2.230;2023-05-10T07:03:33;39.30;68.20
37222;DHT22;23119;51.842;-2.230;2023-05-10T07:06:02;39.50;65.90
37222;DHT22;23119;51.842;-2.230;2023-05-10T07:08:30;39.60;65.50
37222;DHT22;23119;51.842;-2.230;2023-05-10T07:11:06;39.50;65.90
37222;DHT22;23119;51.842;-2.230;2023-05-10T07:13:38;38.00;65.60
37222;DHT22;23119;51.842;-2.230;2023-05-10T07:16:06;36.20;67.60
37222;DHT22;23119;51.842;-2.230;2023-05-10T07:18:33;35.30;68.80
37222;DHT22;23119;51.842;-2.230;2023-05-10T07:20:59;33.60;69.80
37222;DHT22;23119;51.842;-2.230;2023-05-10T07:23:25;32.00;71.60
37222;DHT22;23119;51.842;-2.230;2023-05-10T07:25:51;30.80;73.10
37222;DHT22;23119;51.842;-2.230;2023-05-10T07:28:17;29.90;74.70
37222;DHT22;23119;51.842;-2.230;2023-05-10T07:30:44;28.50;76.50
37222;DHT22;23119;51.842;-2.230;2023-05-10T07:33:11;27.40;78.10
37222;DHT22;23119;51.842;-2.230;2023-05-10T07:35:40;26.30;80.00
37222;DHT22;23119;51.842;-2.230;2023-05-10T07:38:06;25.40;82.00
37222;DHT22;23119;51.842;-2.230;2023-05-10T07:40:34;24.90;83.50
37222;DHT22;23119;51.842;-2.230;2023-05-10T07:43:00;24.50;84.90
37222;DHT22;23119;51.842;-2.230;2023-05-10T07:45:27;24.20;86.40
37222;DHT22;23119;51.842;-2.230;2023-05-10T07:47:56;23.90;87.50
37222;DHT22;23119;51.842;-2.230;2023-05-10T07:50:21;23.60;88.50
37222;DHT22;23119;51.842;-2.230;2023-05-10T07:52:47;23.40;89.60
37222;DHT22;23119;51.842;-2.230;2023-05-10T07:55:13;23.20;89.90
37222;DHT22;23119;51.842;-2.230;2023-05-10T07:57:39;22.90;90.00
37222;DHT22;23119;51.842;-2.230;2023-05-10T08:00:12;22.80;90.60
37222;DHT22;23119;51.842;-2.230;2023-05-10T08:02:37;22.60;90.60
37222;DHT22;23119;51.842;-2.230;2023-05-10T08:05:06;22.50;91.00
37222;DHT22;23119;51.842;-2.230;2023-05-10T08:07:32;22.30;91.20
37222;DHT22;23119;51.842;-2.230;2023-05-10T08:09:58;22.10;91.70
37222;DHT22;23119;51.842;-2.230;2023-05-10T08:12:23;21.80;92.10
37222;DHT22;23119;51.842;-2.230;2023-05-10T08:14:49;21.60;92.30
37222;DHT22;23119;51.842;-2.230;2023-05-10T08:17:15;21.30;92.70
37222;DHT22;23119;51.842;-2.230;2023-05-10T08:19:40;21.00;93.10
37222;DHT22;23119;51.842;-2.230;2023-05-10T08:22:06;20.80;93.60
37222;DHT22;23119;51.842;-2.230;2023-05-10T08:24:32;20.70;94.00
37222;DHT22;23119;51.842;-2.230;2023-05-10T08:27:00;20.70;94.40
37222;DHT22;23119;51.842;-2.230;2023-05-10T08:29:26;21.10;94.50
37222;DHT22;23119;51.842;-2.230;2023-05-10T08:31:51;21.40;94.20
37222;DHT22;23119;51.842;-2.230;2023-05-10T08:34:17;21.80;93.60
37222;DHT22;23119;51.842;-2.230;2023-05-10T08:36:43;22.70;93.10
37222;DHT22;23119;51.842;-2.230;2023-05-10T08:39:08;23.30;92.40
37222;DHT22;23119;51.842;-2.230;2023-05-10T08:41:37;23.60;92.10
37222;DHT22;23119;51.842;-2.230;2023-05-10T08:44:04;24.00;91.70
37222;DHT22;23119;51.842;-2.230;2023-05-10T08:46:33;24.30;91.30
37222;DHT22;23119;51.842;-2.230;2023-05-10T08:49:04;24.80;90.80
37222;DHT22;23119;51.842;-2.230;2023-05-10T08:51:35;25.30;90.60
37222;DHT22;23119;51.842;-2.230;2023-05-10T08:54:05;25.60;89.70
37222;DHT22;23119;51.842;-2.230;2023-05-10T08:56:31;25.80;89.60
37222;DHT22;23119;51.842;-2.230;2023-05-10T08:58:59;26.20;90.10
37222;DHT22;23119;51.842;-2.230;2023-05-10T09:01:29;26.40;88.90
37222;DHT22;23119;51.842;-2.230;2023-05-10T09:04:01;26.40;88.90
37222;DHT22;23119;51.842;-2.230;2023-05-10T09:06:30;26.20;88.50
37222;DHT22;23119;51.842;-2.230;2023-05-10T09:09:02;25.90;88.90
37222;DHT22;23119;51.842;-2.230;2023-05-10T09:11:30;25.50;89.60
37222;DHT22;23119;51.842;-2.230;2023-05-10T09:13:56;25.00;89.80
37222;DHT22;23119;51.842;-2.230;2023-05-10T09:16:27;24.80;90.30
37222;DHT22;23119;51.842;-2.230;2023-05-10T09:18:57;24.50;90.40
37222;DHT22;23119;51.842;-2.230;2023-05-10T09:21:22;24.30;90.80
37222;DHT22;23119;51.842;-2.230;2023-05-10T09:23:48;24.50;91.10
37222;DHT22;23119;51.842;-2.230;2023-05-10T09:26:17;24.70;91.20
37222;DHT22;23119;51.842;-2.230;2023-05-10T09:28:59;24.70;91.00
37222;DHT22;23119;51.842;-2.230;2023-05-10T09:31:52;24.50;91.00
37222;DHT22;23119;51.842;-2.230;2023-05-10T09:34:31;24.40;91.10
37222;DHT22;23119;51.842;-2.230;2023-05-10T09:37:02;24.20;91.40
37222;DHT22;23119;51.842;-2.230;2023-05-10T09:39:36;23.90;91.50
37222;DHT22;23119;51.842;-2.230;2023-05-10T09:42:04;23.60;91.70
37222;DHT22;23119;51.842;-2.230;2023-05-10T09:44:31;23.20;92.00
37222;DHT22;23119;51.842;-2.230;2023-05-10T09:47:05;22.90;92.30
37222;DHT22;23119;51.842;-2.230;2023-05-10T09:49:31;22.60;92.60
37222;DHT22;23119;51.842;-2.230;2023-05-10T09:52:09;22.20;93.10
37222;DHT22;23119;51.842;-2.230;2023-05-10T09:54:37;22.20;93.80
37222;DHT22;23119;51.842;-2.230;2023-05-10T09:57:03;22.30;93.70
37222;DHT22;23119;51.842;-2.230;2023-05-10T09:59:29;22.40;93.60
37222;DHT22;23119;51.842;-2.230;2023-05-10T10:02:00;22.70;93.40
37222;DHT22;23119;51.842;-2.230;2023-05-10T10:04:28;23.10;93.20
37222;DHT22;23119;51.842;-2.230;2023-05-10T10:07:23;23.10;92.70
37222;DHT22;23119;51.842;-2.230;2023-05-10T10:09:52;23.00;92.40
37222;DHT22;23119;51.842;-2.230;2023-05-10T10:12:19;22.90;92.70
37222;DHT22;23119;51.842;-2.230;2023-05-10T10:14:49;22.70;92.80
37222;DHT22;23119;51.842;-2.230;2023-05-10T10:17:16;22.60;93.00
37222;DHT22;23119;51.842;-2.230;2023-05-10T10:19:42;22.60;93.30
37222;DHT22;23119;51.842;-2.230;2023-05-10T10:22:09;22.70;93.30
37222;DHT22;23119;51.842;-2.230;2023-05-10T10:24:41;22.80;93.10
37222;DHT22;23119;51.842;-2.230;2023-05-10T10:27:24;22.80;92.80
37222;DHT22;23119;51.842;-2.230;2023-05-10T10:30:16;23.00;92.90
37222;DHT22;23119;51.842;-2.230;2023-05-10T10:35:23;23.10;92.60
37222;DHT22;23119;51.842;-2.230;2023-05-10T10:37:50;23.10;92.30
37222;DHT22;23119;51.842;-2.230;2023-05-10T10:42:55;22.60;92.50
37222;DHT22;23119;51.842;-2.230;2023-05-10T10:45:21;22.20;92.80
37222;DHT22;23119;51.842;-2.230;2023-05-10T10:47:47;22.00;93.20
37222;DHT22;23119;51.842;-2.230;2023-05-10T10:50:16;21.60;93.60
37222;DHT22;23119;51.842;-2.230;2023-05-10T10:52:45;21.20;94.00
37222;DHT22;23119;51.842;-2.230;2023-05-10T10:55:20;21.00;94.70
37222;DHT22;23119;51.842;-2.230;2023-05-10T10:57:55;20.70;95.30
37222;DHT22;23119;51.842;-2.230;2023-05-10T11:00:34;20.60;96.30
37222;DHT22;23119;51.842;-2.230;2023-05-10T11:03:11;20.70;96.40
37222;DHT22;23119;51.842;-2.230;2023-05-10T11:05:45;21.10;97.40
37222;DHT22;23119;51.842;-2.230;2023-05-10T11:08:41;21.50;96.80
37222;DHT22;23119;51.842;-2.230;2023-05-10T11:11:14;21.80;96.50
37222;DHT22;23119;51.842;-2.230;2023-05-10T11:13:47;22.10;96.40
37222;DHT22;23119;51.842;-2.230;2023-05-10T11:19:12;22.20;95.90
37222;DHT22;23119;51.842;-2.230;2023-05-10T11:21:51;22.20;96.30
37222;DHT22;23119;51.842;-2.230;2023-05-10T11:24:36;21.90;96.20
37222;DHT22;23119;51.842;-2.230;2023-05-10T11:27:02;21.70;96.40
37222;DHT22;23119;51.842;-2.230;2023-05-10T11:29:28;21.50;96.60
37222;DHT22;23119;51.842;-2.230;2023-05-10T11:31:58;21.40;96.60
37222;DHT22;23119;51.842;-2.230;2023-05-10T11:34:30;21.10;96.80
37222;DHT22;23119;51.842;-2.230;2023-05-10T11:36:59;20.80;97.40
37222;DHT22;23119;51.842;-2.230;2023-05-10T11:39:30;20.50;98.10
37222;DHT22;23119;51.842;-2.230;2023-05-10T11:41:56;20.30;98.90
37222;DHT22;23119;51.842;-2.230;2023-05-10T11:44:22;20.10;99.30
37222;DHT22;23119;51.842;-2.230;2023-05-10T11:46:53;19.90;99.80
37222;DHT22;23119;51.842;-2.230;2023-05-10T11:49:19;19.70;99.90
37222;DHT22;23119;51.842;-2.230;2023-05-10T11:51:49;19.60;99.90
37222;DHT22;23119;51.842;-2.230;2023-05-10T11:54:14;19.60;99.90
37222;DHT22;23119;51.842;-2.230;2023-05-10T11:56:40;19.80;99.90
37222;DHT22;23119;51.842;-2.230;2023-05-10T11:59:15;20.10;99.90
37222;DHT22;23119;51.842;-2.230;2023-05-10T12:01:41;20.60;99.90
37222;DHT22;23119;51.842;-2.230;2023-05-10T12:04:07;20.90;99.90
37222;DHT22;23119;51.842;-2.230;2023-05-10T12:06:40;21.10;99.70
37222;DHT22;23119;51.842;-2.230;2023-05-10T12:09:07;21.40;99.60
37222;DHT22;23119;51.842;-2.230;2023-05-10T12:11:39;21.40;99.10
37222;DHT22;23119;51.842;-2.230;2023-05-10T12:14:06;21.60;99.00
37222;DHT22;23119;51.842;-2.230;2023-05-10T12:16:32;21.80;98.80
37222;DHT22;23119;51.842;-2.230;2023-05-10T12:18:59;22.00;98.50
37222;DHT22;23119;51.842;-2.230;2023-05-10T12:21:27;22.20;98.00
37222;DHT22;23119;51.842;-2.230;2023-05-10T12:23:54;22.10;97.40
37222;DHT22;23119;51.842;-2.230;2023-05-10T12:26:28;22.30;96.80
37222;DHT22;23119;51.842;-2.230;2023-05-10T12:28:54;22.50;96.10
37222;DHT22;23119;51.842;-2.230;2023-05-10T12:31:20;22.80;96.70
37222;DHT22;23119;51.842;-2.230;2023-05-10T12:33:46;23.10;96.40
37222;DHT22;23119;51.842;-2.230;2023-05-10T12:36:15;23.30;96.30
37222;DHT22;23119;51.842;-2.230;2023-05-10T12:38:45;23.30;96.10
37222;DHT22;23119;51.842;-2.230;2023-05-10T12:41:17;23.40;95.90
37222;DHT22;23119;51.842;-2.230;2023-05-10T12:43:46;23.40;96.10
37222;DHT22;23119;51.842;-2.230;2023-05-10T12:46:16;23.20;96.10
37222;DHT22;23119;51.842;-2.230;2023-05-10T12:48:45;23.10;96.10
37222;DHT22;23119;51.842;-2.230;2023-05-10T12:51:12;22.90;96.10
37222;DHT22;23119;51.842;-2.230;2023-05-10T12:53:40;22.60;95.90
37222;DHT22;23119;51.842;-2.230;2023-05-10T12:56:06;22.40;96.30
37222;DHT22;23119;51.842;-2.230;2023-05-10T12:58:35;22.30;96.20
37222;DHT22;23119;51.842;-2.230;2023-05-10T13:01:01;22.30;96.30
37222;DHT22;23119;51.842;-2.230;2023-05-10T13:03:29;22.20;96.60
37222;DHT22;23119;51.842;-2.230;2023-05-10T13:05:58;22.20;97.10
37222;DHT22;23119;51.842;-2.230;2023-05-10T13:08:23;22.10;97.60
37222;DHT22;23119;51.842;-2.230;2023-05-10T13:10:52;21.90;97.70
37222;DHT22;23119;51.842;-2.230;2023-05-10T13:13:17;21.70;98.10
37222;DHT22;23119;51.842;-2.230;2023-05-10T13:15:46;21.60;98.40
37222;DHT22;23119;51.842;-2.230;2023-05-10T13:18:11;21.50;98.70
37222;DHT22;23119;51.842;-2.230;2023-05-10T13:20:40;21.50;98.70
37222;DHT22;23119;51.842;-2.230;2023-05-10T13:23:08;21.40;98.90
37222;DHT22;23119;51.842;-2.230;2023-05-10T13:25:34;21.20;98.90
37222;DHT22;23119;51.842;-2.230;2023-05-10T13:27:59;21.20;98.70
37222;DHT22;23119;51.842;-2.230;2023-05-10T13:30:25;21.10;98.80
37222;DHT22;23119;51.842;-2.230;2023-05-10T13:32:51;21.00;98.80
37222;DHT22;23119;51.842;-2.230;2023-05-10T13:35:17;20.80;99.10
37222;DHT22;23119;51.842;-2.230;2023-05-10T13:37:43;20.70;99.30
37222;DHT22;23119;51.842;-2.230;2023-05-10T13:40:08;20.50;99.90
37222;DHT22;23119;51.842;-2.230;2023-05-10T13:42:37;20.00;99.70
37222;DHT22;23119;51.842;-2.230;2023-05-10T13:45:06;19.50;99.80
37222;DHT22;23119;51.842;-2.230;2023-05-10T13:47:37;19.00;99.90
37222;DHT22;23119;51.842;-2.230;2023-05-10T13:50:03;18.50;99.90
37222;DHT22;23119;51.842;-2.230;2023-05-10T13:52:29;18.10;99.90
37222;DHT22;23119;51.842;-2.230;2023-05-10T13:54:55;17.60;99.90
37222;DHT22;23119;51.842;-2.230;2023-05-10T13:57:21;17.30;99.90
37222;DHT22;23119;51.842;-2.230;2023-05-10T13:59:47;17.00;99.90
37222;DHT22;23119;51.842;-2.230;2023-05-10T14:02:13;16.80;99.90
37222;DHT22;23119;51.842;-2.230;2023-05-10T14:04:39;16.60;99.90
37222;DHT22;23119;51.842;-2.230;2023-05-10T14:07:04;16.50;99.90
37222;DHT22;23119;51.842;-2.230;2023-05-10T14:09:30;16.40;99.90
37222;DHT22;23119;51.842;-2.230;2023-05-10T14:11:59;16.40;99.90
37222;DHT22;23119;51.842;-2.230;2023-05-10T14:14:27;16.30;99.90
37222;DHT22;23119;51.842;-2.230;2023-05-10T14:16:57;16.30;99.90
37222;DHT22;23119;51.842;-2.230;2023-05-10T14:19:25;16.40;99.90
37222;DHT22;23119;51.842;-2.230;2023-05-10T14:21:52;16.40;99.90
37222;DHT22;23119;51.842;-2.230;2023-05-10T14:24:20;16.70;99.90
37222;DHT22;23119;51.842;-2.230;2023-05-10T14:26:45;16.90;99.90
37222;DHT22;23119;51.842;-2.230;2023-05-10T14:29:11;17.20;99.90
37222;DHT22;23119;51.842;-2.230;2023-05-10T14:31:37;17.50;99.90
37222;DHT22;23119;51.842;-2.230;2023-05-10T14:34:08;17.90;99.90
37222;DHT22;23119;51.842;-2.230;2023-05-10T14:36:34;18.20;99.90
37222;DHT22;23119;51.842;-2.230;2023-05-10T14:39:00;18.50;99.90
37222;DHT22;23119;51.842;-2.230;2023-05-10T14:41:25;18.70;99.90
37222;DHT22;23119;51.842;-2.230;2023-05-10T14:43:56;18.70;99.90
37222;DHT22;23119;51.842;-2.230;2023-05-10T14:46:24;18.80;99.90
37222;DHT22;23119;51.842;-2.230;2023-05-10T14:48:51;18.70;99.90
37222;DHT22;23119;51.842;-2.230;2023-05-10T14:51:20;18.60;99.90
37222;DHT22;23119;51.842;-2.230;2023-05-10T14:53:48;18.60;99.90
37222;DHT22;23119;51.842;-2.230;2023-05-10T14:56:15;18.50;99.90
37222;DHT22;23119;51.842;-2.230;2023-05-10T14:58:43;18.50;99.90
37222;DHT22;23119;51.842;-2.230;2023-05-10T15:01:08;18.80;99.90
37222;DHT22;23119;51.842;-2.230;2023-05-10T15:03:34;19.10;99.90
37222;DHT22;23119;51.842;-2.230;2023-05-10T15:06:00;19.50;99.90
37222;DHT22;23119;51.842;-2.230;2023-05-10T15:08:26;19.70;99.90
37222;DHT22;23119;51.842;-2.230;2023-05-10T15:10:55;20.00;99.90
37222;DHT22;23119;51.842;-2.230;2023-05-10T15:13:25;20.10;99.90
37222;DHT22;23119;51.842;-2.230;2023-05-10T15:15:54;20.20;99.90
37222;DHT22;23119;51.842;-2.230;2023-05-10T15:18:22;20.20;99.90
37222;DHT22;23119;51.842;-2.230;2023-05-10T15:20:50;20.10;99.90
37222;DHT22;23119;51.842;-2.230;2023-05-10T15:23:18;20.00;99.90
37222;DHT22;23119;51.842;-2.230;2023-05-10T15:25:44;19.90;99.90
37222;DHT22;23119;51.842;-2.230;2023-05-10T15:28:10;19.70;99.90
37222;DHT22;23119;51.842;-2.230;2023-05-10T15:30:35;19.60;99.90
37222;DHT22;23119;51.842;-2.230;2023-05-10T15:33:06;19.50;99.90
37222;DHT22;23119;51.842;-2.230;2023-05-10T15:35:33;19.40;99.90
37222;DHT22;23119;51.842;-2.230;2023-05-10T15:38:01;19.40;99.90
37222;DHT22;23119;51.842;-2.230;2023-05-10T15:40:28;19.40;99.90
37222;DHT22;23119;51.842;-2.230;2023-05-10T15:42:54;19.40;99.90
37222;DHT22;23119;51.842;-2.230;2023-05-10T15:45:23;19.50;99.90
37222;DHT22;23119;51.842;-2.230;2023-05-10T15:47:48;19.50;99.90